首页
METAR-TAF:

METAR-TAF

机场 :

贝尔法斯特国际机场

贝尔法斯特, 北爱尔兰

纬度: 54-39N, 经度: 006-13W, 海拔: 81米

当前天气观测

该预报发布于18分钟前的17:20 UTC
风速10节,风向南转西南
温度 7°C
湿度 87%
气压 1043 hPa
能见度10公里或以上
多云层高于2600英尺

METAR: EGAA 201720Z 21010KT 9999 BKN026 07/05 Q1043

时间: 17:38 (17:38 UTC)

预报

该预报发布于36分钟前的17:02 UTC
预报有效从20日的 18点(UTC)到 21日的 18点(UTC)
风速7节,风向南转西南
能见度10公里或以上
多云层高于2200英尺
几率 30% :
短暂存在
从 20日的 22点(UTC)到 21日的 03点(UTC)
能见度10公里或以上
1500米以下无云,无积雨云
成为
从 21日的 03点(UTC)到 21日的 06点(UTC)
多云层高于1000英尺
成为
从 21日的 06点(UTC)到 21日的 09点(UTC)
多云层高于500英尺
几率 40% :
短暂存在
从 21日的 09点(UTC)到 21日的 18点(UTC)
能見度: 6000
多云层高于200英尺

TAF: EGAA 201702Z 2018/2118 21007KT 9999 BKN022 PROB30 TEMPO 2022/2103 CAVOK BECMG 2103/2106 BKN010 BECMG 2106/2109 BKN005 PROB40 TEMPO 2109/2118 6000 BKN002

超过4000个机场的气象观测和天气预报(METAR&TAF报告)。

可查询的气象台以黄色和红色小点在地图上表示。

将鼠标移到小点上方,可查看气象台名称。

然后点击查看天气观测和预报。

如需切换地图:点击带黑十字的绿色按钮放大地图;点击带横线的绿色按钮缩小地图;或者点击绿色箭头查看邻近地区的地图。


METAR-TAF: